Time;durP1;ratioP1;P1;durP2;ratioP2;P2;SDS_P1;SDS_P2;PMS_P1;PMS_P2;Temp;Humidity;BMP_temperature;BMP_pressure;BME280_temperature;BME280_humidity;BME280_pressure;Samples;Min_cycle;Max_cycle;Signal;HPM_P1;HPM_P2
2024/04/02 00:01:07;;;;;;;6.10;1.83;;;;;;;12.76;54.49;100198.66;4945336;28;97008;-85
2024/04/02 00:03:32;;;;;;;4.22;2.22;;;;;;;12.75;54.22;100203.91;4942264;28;97805;-85
2024/04/02 00:05:58;;;;;;;4.22;1.75;;;;;;;12.73;54.32;100205.66;4945591;28;97423;-86
2024/04/02 00:08:23;;;;;;;3.50;1.98;;;;;;;12.71;54.35;100196.97;4947052;28;96812;-85
2024/04/02 00:10:49;;;;;;;4.13;2.08;;;;;;;12.70;54.48;100201.28;4945940;28;96906;-85
2024/04/02 00:13:15;;;;;;;6.63;1.88;;;;;;;12.69;54.37;100202.19;4934304;28;100461;-85
2024/04/02 00:15:47;;;;;;;3.25;2.10;;;;;;;12.66;54.47;100203.97;4945318;28;97446;-86
2024/04/02 00:18:15;;;;;;;4.85;1.70;;;;;;;12.65;54.44;100210.91;4946668;28;96914;-85
2024/04/02 00:20:41;;;;;;;5.35;1.83;;;;;;;12.64;54.49;100206.59;4929835;28;96860;-86
2024/04/02 00:23:08;;;;;;;4.50;2.00;;;;;;;12.62;54.43;100210.06;4948951;28;97758;-86
2024/04/02 00:25:35;;;;;;;4.72;1.67;;;;;;;12.60;54.43;100207.47;4947083;28;97867;-86
2024/04/02 00:28:00;;;;;;;4.22;1.50;;;;;;;12.59;54.31;100210.13;4944223;28;96927;-85
2024/04/02 00:30:27;;;;;;;2.92;1.90;;;;;;;12.56;54.54;100208.38;4944104;28;96984;-85
2024/04/02 00:32:54;;;;;;;4.32;1.85;;;;;;;12.52;54.45;100212.75;4946591;28;100587;-85
2024/04/02 00:35:20;;;;;;;4.85;1.83;;;;;;;12.50;54.51;100214.50;4929943;28;100226;-85
2024/04/02 00:37:50;;;;;;;3.35;1.40;;;;;;;12.47;54.52;100222.34;4946442;28;96963;-85
2024/04/02 00:40:16;;;;;;;4.22;1.50;;;;;;;12.46;54.43;100222.38;4943275;28;96866;-85
2024/04/02 00:42:43;;;;;;;5.88;1.90;;;;;;;12.43;54.59;100218.03;4946656;28;98031;-86
2024/04/02 00:45:08;;;;;;;6.43;1.90;;;;;;;12.42;54.61;100220.66;4938770;28;100527;-85
2024/04/02 00:47:35;;;;;;;5.35;1.92;;;;;;;12.40;54.62;100219.78;4946014;28;96876;-85
2024/04/02 00:50:01;;;;;;;5.15;1.65;;;;;;;12.37;54.65;100224.16;4947121;28;96723;-85
2024/04/02 00:52:27;;;;;;;3.35;2.00;;;;;;;12.33;54.92;100222.41;4939461;28;97763;-85
2024/04/02 00:54:55;;;;;;;4.43;1.67;;;;;;;12.32;54.82;100222.44;4927740;28;100432;-85
2024/04/02 00:57:21;;;;;;;2.58;1.75;;;;;;;12.30;54.97;100229.41;4945077;28;96824;-85
2024/04/02 00:59:47;;;;;;;5.28;1.90;;;;;;;12.29;54.82;100219.84;4930686;28;96905;-85
2024/04/02 01:02:13;;;;;;;3.78;1.50;;;;;;;12.26;55.03;100218.09;4945993;28;97672;-85
2024/04/02 01:04:39;;;;;;;4.43;1.60;;;;;;;12.26;54.93;100217.22;4942179;28;97854;-85
2024/04/02 01:07:05;;;;;;;4.22;1.38;;;;;;;12.25;54.88;100225.97;4939730;28;97005;-85
2024/04/02 01:09:30;;;;;;;4.75;1.75;;;;;;;12.22;54.92;100239.91;4931417;28;96887;-85
2024/04/02 01:11:59;;;;;;;4.55;1.60;;;;;;;12.19;55.22;100238.19;4930080;28;100480;-85
2024/04/02 01:14:24;;;;;;;5.18;2.00;;;;;;;12.17;55.02;100244.28;4941524;28;100410;-85
2024/04/02 01:16:50;;;;;;;2.95;1.38;;;;;;;12.15;55.20;100246.91;4926535;28;97044;-85
2024/04/02 01:19:15;;;;;;;2.97;1.70;;;;;;;12.15;55.41;100256.50;4945826;28;96997;-85
2024/04/02 01:21:41;;;;;;;3.55;1.83;;;;;;;12.14;55.20;100252.16;4929348;28;100872;-85
2024/04/02 01:24:06;;;;;;;3.53;1.70;;;;;;;12.12;55.41;100249.53;4941725;28;97986;-85
2024/04/02 01:26:32;;;;;;;4.28;1.98;;;;;;;12.11;55.14;100252.16;4927588;28;96789;-85
2024/04/02 01:28:58;;;;;;;3.38;1.80;;;;;;;12.09;55.36;100251.31;4948229;28;96842;-85
2024/04/02 01:31:24;;;;;;;4.85;1.73;;;;;;;12.07;55.41;100258.28;4944369;28;98032;-84
2024/04/02 01:33:50;;;;;;;7.07;1.70;;;;;;;12.05;55.45;100252.16;4942223;28;100941;-85
2024/04/02 01:36:15;;;;;;;3.20;1.70;;;;;;;12.03;55.57;100248.69;4940973;28;96861;-85
2024/04/02 01:38:41;;;;;;;5.10;1.90;;;;;;;11.99;55.55;100256.53;4928408;28;97005;-85
2024/04/02 01:41:06;;;;;;;5.97;1.95;;;;;;;11.98;55.38;100254.81;4928945;28;100276;-85
2024/04/02 01:43:32;;;;;;;4.53;1.83;;;;;;;11.98;55.38;100257.41;4945199;28;97736;-85
2024/04/02 01:45:57;;;;;;;3.88;2.03;;;;;;;11.95;55.52;100261.78;4928306;28;97514;-85
2024/04/02 01:48:22;;;;;;;6.00;2.53;;;;;;;11.93;55.44;100259.19;4944914;28;97188;-85
2024/04/02 01:50:48;;;;;;;6.13;2.53;;;;;;;11.90;55.70;100255.66;4927603;28;100658;-85
2024/04/02 01:53:13;;;;;;;5.72;2.28;;;;;;;11.87;55.57;100255.66;4942432;28;100691;-85
2024/04/02 01:55:39;;;;;;;4.55;2.20;;;;;;;11.84;55.71;100250.47;4937199;28;96937;-85
2024/04/02 01:58:04;;;;;;;5.10;2.17;;;;;;;11.79;55.81;100259.16;4942236;28;96938;-85
2024/04/02 02:00:29;;;;;;;7.00;2.50;;;;;;;11.77;55.73;100268.75;4941355;28;97414;-85
2024/04/02 02:02:55;;;;;;;3.55;1.83;;;;;;;11.75;55.76;100259.19;4940973;28;100478;-84
2024/04/02 02:05:20;;;;;;;4.88;1.80;;;;;;;11.72;55.89;100265.28;4941883;28;96939;-86
2024/04/02 02:07:46;;;;;;;4.00;2.10;;;;;;;11.69;55.88;100270.50;4940641;28;96889;-85
2024/04/02 02:10:13;;;;;;;5.63;2.47;;;;;;;11.63;55.83;100274.00;4944511;28;100470;-86
2024/04/02 02:12:41;;;;;;;4.65;2.20;;;;;;;11.58;55.85;100270.50;4941627;28;100405;-85
2024/04/02 02:15:07;;;;;;;5.03;2.50;;;;;;;11.56;56.32;100268.78;4928883;28;96844;-85
2024/04/02 02:17:32;;;;;;;6.03;2.50;;;;;;;11.53;56.08;100274.88;4946063;28;96915;-85
2024/04/02 02:19:58;;;;;;;5.10;2.72;;;;;;;11.53;56.14;100266.16;4942097;28;108005;-86
2024/04/02 02:22:24;;;;;;;4.32;2.83;;;;;;;11.50;56.05;100272.28;4942914;28;97480;-86
2024/04/02 02:24:49;;;;;;;4.22;2.60;;;;;;;11.45;56.12;100274.00;4941884;28;96875;-86
2024/04/02 02:27:15;;;;;;;4.13;2.25;;;;;;;11.41;56.32;100270.53;4944945;28;96980;-85
2024/04/02 02:29:40;;;;;;;5.80;2.55;;;;;;;11.39;56.41;100274.88;4928448;28;100466;-85
2024/04/02 02:32:06;;;;;;;5.80;2.72;;;;;;;11.37;56.22;100275.75;4938429;28;100496;-85
2024/04/02 02:34:31;;;;;;;5.05;2.95;;;;;;;11.35;56.39;100278.34;4944674;28;96917;-85
2024/04/02 02:36:57;;;;;;;5.00;3.15;;;;;;;11.34;56.53;100271.41;4927312;28;96952;-85
2024/04/02 02:39:22;;;;;;;6.25;3.03;;;;;;;11.33;56.47;100269.66;4931911;28;100311;-85
2024/04/02 02:41:48;;;;;;;6.18;2.70;;;;;;;11.33;56.39;100269.66;4945015;28;100089;-85
2024/04/02 02:44:13;;;;;;;6.15;3.05;;;;;;;11.32;56.52;100269.63;4947499;28;96697;-86
2024/04/02 02:46:39;;;;;;;9.30;3.78;;;;;;;11.32;56.45;100270.53;4945074;28;96927;-85
2024/04/02 02:49:04;;;;;;;4.97;2.83;;;;;;;11.33;56.48;100274.00;4929166;28;100518;-85
2024/04/02 02:51:30;;;;;;;5.90;2.72;;;;;;;11.32;56.62;100277.47;4942779;28;100781;-85
2024/04/02 02:53:56;;;;;;;4.80;2.72;;;;;;;11.33;56.69;100284.44;4936797;28;96905;-85
2024/04/02 02:56:22;;;;;;;5.18;2.72;;;;;;;11.31;56.51;100292.28;4944803;28;96811;-85
2024/04/02 02:58:50;;;;;;;7.75;3.10;;;;;;;11.29;56.44;100294.03;4944114;28;97757;-85
2024/04/02 03:01:16;;;;;;;6.10;3.03;;;;;;;11.29;56.74;100298.38;4928024;28;100531;-85
2024/04/02 03:03:41;;;;;;;8.30;3.40;;;;;;;11.26;56.73;100301.84;4949410;28;96894;-85
2024/04/02 03:06:07;;;;;;;6.20;3.20;;;;;;;11.24;56.63;100300.97;4932543;28;96887;-85
2024/04/02 03:08:33;;;;;;;6.22;3.53;;;;;;;11.23;56.70;100304.47;4948308;28;97996;-86
2024/04/02 03:11:03;;;;;;;5.07;2.90;;;;;;;11.18;56.80;100301.84;4942798;28;100445;-85
2024/04/02 03:13:33;;;;;;;5.97;2.92;;;;;;;11.16;56.80;100307.94;4928904;28;96970;-85
2024/04/02 03:15:59;;;;;;;4.93;2.97;;;;;;;11.13;56.77;100318.38;4948766;28;96817;-85
2024/04/02 03:18:24;;;;;;;6.05;3.33;;;;;;;11.08;57.02;100318.34;4930791;28;99671;-86
2024/04/02 03:20:50;;;;;;;6.28;2.85;;;;;;;11.05;57.00;100318.34;4929403;28;100176;-85
2024/04/02 03:23:20;;;;;;;4.22;2.78;;;;;;;11.04;57.12;100320.09;4926747;28;96919;-86
2024/04/02 03:26:00;;;;;;;6.07;3.00;;;;;;;11.03;57.19;100317.47;4931494;28;96849;-85
2024/04/02 03:28:26;;;;;;;7.15;2.60;;;;;;;11.04;57.01;100321.81;4940331;28;100723;-86
2024/04/02 03:31:01;;;;;;;5.78;3.22;;;;;;;11.01;57.27;100321.81;4931792;28;100468;-85
2024/04/02 03:33:29;;;;;;;6.22;2.70;;;;;;;10.99;57.11;100318.34;4947469;28;96879;-86
2024/04/02 03:36:01;;;;;;;6.05;3.20;;;;;;;10.97;57.17;100322.69;4943037;28;96892;-86
2024/04/02 03:38:27;;;;;;;6.15;3.08;;;;;;;10.93;57.24;100323.56;4946339;28;100893;-85
2024/04/02 03:40:52;;;;;;;6.72;2.70;;;;;;;10.92;57.24;100327.88;4929737;28;100339;-85
2024/04/02 03:43:18;;;;;;;7.25;3.22;;;;;;;10.92;57.47;100329.63;4931774;28;97024;-85
2024/04/02 03:45:44;;;;;;;5.45;2.67;;;;;;;10.91;57.36;100328.75;4940537;28;97010;-85
2024/04/02 03:48:09;;;;;;;5.68;3.03;;;;;;;10.89;57.40;100334.81;4935814;28;100698;-85
2024/04/02 03:50:37;;;;;;;6.43;3.35;;;;;;;10.85;57.51;100342.66;4925811;28;100092;-85
2024/04/02 03:53:04;;;;;;;4.90;3.05;;;;;;;10.83;57.48;100343.50;4930303;28;97003;-85
2024/04/02 03:55:36;;;;;;;6.30;2.78;;;;;;;10.81;57.63;100345.25;4944623;28;97006;-85
2024/04/02 03:58:05;;;;;;;7.88;3.05;;;;;;;10.81;57.64;100353.06;4946382;28;100190;-85
2024/04/02 04:00:31;;;;;;;7.35;3.08;;;;;;;10.79;57.52;100347.84;4948460;28;100688;-86
2024/04/02 04:02:57;;;;;;;5.03;2.80;;;;;;;10.76;57.60;100346.97;4939873;28;96742;-85
2024/04/02 04:05:23;;;;;;;6.50;3.00;;;;;;;10.76;57.44;100349.56;4938466;28;96855;-85
2024/04/02 04:07:49;;;;;;;6.35;2.72;;;;;;;10.74;57.68;100349.56;4942059;28;100749;-85
2024/04/02 04:10:16;;;;;;;5.68;2.75;;;;;;;10.74;57.69;100346.94;4961554;28;100181;-85
2024/04/02 04:12:43;;;;;;;6.00;2.80;;;;;;;10.74;57.74;100362.59;4932079;28;96897;-85
2024/04/02 04:15:08;;;;;;;5.35;2.85;;;;;;;10.75;57.70;100372.19;4946558;28;96792;-85
2024/04/02 04:17:33;;;;;;;6.82;2.97;;;;;;;10.74;57.65;100366.97;4948095;28;97660;-85
2024/04/02 04:19:59;;;;;;;6.75;3.03;;;;;;;10.72;57.67;100361.72;4945251;28;100656;-85
2024/04/02 04:22:24;;;;;;;6.63;3.05;;;;;;;10.69;57.76;100361.72;4941919;28;96713;-85
2024/04/02 04:25:01;;;;;;;6.47;2.60;;;;;;;10.67;57.66;100366.91;4930306;28;96855;-86
2024/04/02 04:27:32;;;;;;;5.32;2.78;;;;;;;10.66;57.66;100365.19;4944019;28;100437;-85
2024/04/02 04:29:59;;;;;;;9.32;3.25;;;;;;;10.65;58.01;100370.41;4944979;28;100777;-85
2024/04/02 04:32:24;;;;;;;6.78;3.53;;;;;;;10.64;58.13;100379.06;4930691;28;96898;-85
2024/04/02 04:34:49;;;;;;;6.88;3.03;;;;;;;10.63;58.09;100378.22;4946993;28;97464;-85
2024/04/02 04:37:15;;;;;;;6.85;2.92;;;;;;;10.64;58.27;100379.97;4927065;28;100145;-85
2024/04/02 04:39:40;;;;;;;6.65;2.70;;;;;;;10.66;58.15;100382.59;4942908;28;97523;-85
2024/04/02 04:42:06;;;;;;;7.25;3.13;;;;;;;10.64;58.21;100385.19;4922468;28;96882;-85
2024/04/02 04:44:31;;;;;;;8.98;3.38;;;;;;;10.67;58.13;100389.53;4943504;28;96951;-85
2024/04/02 04:46:56;;;;;;;5.30;2.97;;;;;;;10.70;58.48;100384.34;4941199;28;100388;-85
2024/04/02 04:49:22;;;;;;;7.57;3.45;;;;;;;10.72;58.42;100394.78;4948054;28;100631;-85
2024/04/02 04:51:47;;;;;;;8.48;3.22;;;;;;;10.74;58.54;100393.03;4945872;28;96935;-85
2024/04/02 04:54:13;;;;;;;8.80;3.40;;;;;;;10.75;58.40;100400.88;4931224;28;96945;-86
2024/04/02 04:56:38;;;;;;;9.32;3.25;;;;;;;10.78;58.37;100400.00;4943955;28;100272;-87
2024/04/02 04:59:03;;;;;;;8.05;3.53;;;;;;;10.78;58.56;100395.66;4928137;28;100196;-86
2024/04/02 05:01:29;;;;;;;10.27;4.65;;;;;;;10.81;58.82;100397.44;4926744;28;97070;-86
2024/04/02 05:03:54;;;;;;;8.38;4.45;;;;;;;10.83;58.66;100398.31;4928034;28;97001;-86
2024/04/02 05:06:21;;;;;;;9.60;3.33;;;;;;;10.89;59.04;100408.78;4923838;28;100189;-87
2024/04/02 05:08:47;;;;;;;5.97;2.97;;;;;;;10.94;59.08;100414.88;4925602;28;100595;-87
2024/04/02 05:11:12;;;;;;;6.32;2.80;;;;;;;11.00;59.07;100414.03;4927811;28;96906;-87
2024/04/02 05:13:40;;;;;;;8.90;3.15;;;;;;;11.05;58.86;100417.50;4922133;28;97246;-86
2024/04/02 05:16:06;;;;;;;7.72;3.30;;;;;;;11.10;58.94;100418.41;4945502;28;99829;-87
2024/04/02 05:18:33;;;;;;;6.32;3.38;;;;;;;11.15;59.06;100410.59;4944454;28;97538;-86
2024/04/02 05:20:58;;;;;;;7.40;3.00;;;;;;;11.18;58.78;100415.84;4942864;28;98061;-88
2024/04/02 05:23:26;;;;;;;8.55;3.05;;;;;;;11.20;58.76;100419.31;4936356;28;96827;-88
2024/04/02 05:25:57;;;;;;;7.53;2.80;;;;;;;11.21;58.89;100414.13;4938410;28;100127;-85
2024/04/02 05:28:22;;;;;;;7.25;3.08;;;;;;;11.23;58.80;100414.97;4926584;28;100798;-84
2024/04/02 05:30:48;;;;;;;7.10;3.45;;;;;;;11.26;58.77;100424.56;4944993;28;96960;-85
2024/04/02 05:33:13;;;;;;;8.10;2.97;;;;;;;11.27;58.39;100421.09;4944327;28;96924;-84
2024/04/02 05:35:38;;;;;;;6.70;2.78;;;;;;;11.32;58.77;100426.31;4926822;28;100529;-84
2024/04/02 05:38:04;;;;;;;7.55;2.88;;;;;;;11.35;58.81;100427.19;4961894;28;100387;-84
2024/04/02 05:40:31;;;;;;;7.65;2.70;;;;;;;11.39;58.99;100430.66;4925646;28;96871;-84
2024/04/02 05:42:56;;;;;;;6.75;2.85;;;;;;;11.42;58.98;100428.94;4944433;28;97247;-84
2024/04/02 05:45:22;;;;;;;7.75;2.75;;;;;;;11.48;58.93;100429.81;4945517;28;97711;-84
2024/04/02 05:47:47;;;;;;;7.18;3.05;;;;;;;11.51;58.89;100435.06;4920427;28;100051;-84
2024/04/02 05:50:15;;;;;;;7.40;3.00;;;;;;;11.55;58.86;100434.19;4933633;28;97074;-84
2024/04/02 05:52:40;;;;;;;6.70;3.22;;;;;;;11.57;58.96;100435.94;4942336;28;96921;-83
2024/04/02 05:55:06;;;;;;;6.90;2.83;;;;;;;11.61;58.90;100436.84;4945773;28;97612;-84
2024/04/02 05:57:31;;;;;;;6.28;2.78;;;;;;;11.64;59.21;100442.06;4942531;28;100711;-84
2024/04/02 05:59:56;;;;;;;5.28;2.72;;;;;;;11.67;59.03;100439.44;4939178;28;97121;-84
2024/04/02 06:02:22;;;;;;;6.72;2.83;;;;;;;11.69;59.08;100439.44;4942729;28;96889;-84
2024/04/02 06:04:47;;;;;;;11.27;3.45;;;;;;;11.71;58.87;100441.22;4939817;28;100455;-84
2024/04/02 06:07:13;;;;;;;7.10;2.78;;;;;;;11.75;59.13;100448.19;4944020;28;100625;-84
2024/04/02 06:09:39;;;;;;;6.13;2.60;;;;;;;11.80;59.25;100446.44;4945386;28;96804;-84
2024/04/02 06:12:05;;;;;;;8.68;2.65;;;;;;;11.84;59.15;100449.94;4944415;28;96878;-85
2024/04/02 06:14:32;;;;;;;6.72;3.20;;;;;;;11.89;59.31;100453.41;4928503;28;100334;-86
2024/04/02 06:16:57;;;;;;;7.35;2.85;;;;;;;11.93;59.29;100455.19;4940430;28;97836;-86
2024/04/02 06:19:23;;;;;;;9.95;2.95;;;;;;;11.97;59.32;100456.06;4939014;28;97347;-86
2024/04/02 06:21:49;;;;;;;7.97;2.63;;;;;;;11.98;59.36;100458.69;4957650;28;96830;-87
2024/04/02 06:24:14;;;;;;;7.93;2.85;;;;;;;11.94;59.50;100454.34;4944963;28;97994;-87
2024/04/02 06:26:40;;;;;;;8.43;2.65;;;;;;;11.91;59.43;100458.69;4945560;28;97605;-87
2024/04/02 06:29:05;;;;;;;5.57;2.35;;;;;;;11.86;59.67;100468.22;4929679;28;97144;-86
2024/04/02 06:31:31;;;;;;;9.07;2.70;;;;;;;11.84;59.62;100464.75;4928949;28;96840;-86
2024/04/02 06:33:56;;;;;;;9.32;2.20;;;;;;;11.84;60.12;100473.44;4927769;28;100252;-86
2024/04/02 06:36:23;;;;;;;8.82;2.95;;;;;;;11.87;60.49;100468.22;4928991;28;99825;-86
2024/04/02 06:38:48;;;;;;;7.20;2.33;;;;;;;11.89;60.45;100473.44;4951846;28;96810;-86
2024/04/02 06:41:14;;;;;;;7.28;2.53;;;;;;;11.91;60.56;100484.81;4953010;28;96868;-86
2024/04/02 06:43:40;;;;;;;7.53;2.63;;;;;;;11.93;60.55;100481.31;4946167;28;100696;-86
2024/04/02 06:46:05;;;;;;;8.52;2.90;;;;;;;11.97;60.80;100483.06;4948326;28;97530;-86
2024/04/02 06:48:31;;;;;;;9.13;2.90;;;;;;;12.02;60.72;100484.84;4948038;28;96948;-86
2024/04/02 06:51:04;;;;;;;7.55;3.25;;;;;;;12.06;60.82;100487.44;4948371;28;96896;-86
2024/04/02 06:53:31;;;;;;;10.65;2.80;;;;;;;12.12;60.89;100486.56;4931560;28;100460;-86
2024/04/02 06:55:57;;;;;;;7.43;2.45;;;;;;;12.16;60.76;100490.94;4947992;28;100119;-86
2024/04/02 06:58:23;;;;;;;8.18;2.72;;;;;;;12.21;60.73;100483.97;4931617;28;96970;-86
2024/04/02 07:00:49;;;;;;;7.45;2.83;;;;;;;12.26;60.71;100481.34;4944907;28;96803;-86
2024/04/02 07:03:16;;;;;;;10.73;2.67;;;;;;;12.31;60.75;100483.06;4945123;28;97551;-86
2024/04/02 07:05:46;;;;;;;11.90;3.30;;;;;;;12.36;60.69;100488.31;4943540;28;100220;-86
2024/04/02 07:08:12;;;;;;;10.88;3.65;;;;;;;12.41;60.68;100494.41;4954676;28;96943;-86
2024/04/02 07:10:39;;;;;;;6.22;2.78;;;;;;;12.44;60.14;100488.31;4946571;28;96891;-86
2024/04/02 07:13:05;;;;;;;9.45;2.83;;;;;;;12.48;60.54;100492.69;4929308;28;100851;-86
2024/04/02 07:15:31;;;;;;;13.57;3.17;;;;;;;12.51;60.47;100492.66;4945001;28;97587;-86
2024/04/02 07:17:56;;;;;;;6.68;2.90;;;;;;;12.54;60.42;100492.66;4950553;28;97210;-86
2024/04/02 07:20:23;;;;;;;7.38;2.50;;;;;;;12.57;60.48;100495.28;4942820;28;97078;-86
2024/04/02 07:22:49;;;;;;;8.43;3.15;;;;;;;12.62;60.43;100492.63;4944343;28;100745;-86
2024/04/02 07:25:14;;;;;;;13.05;3.17;;;;;;;12.66;60.37;100495.25;4929547;28;100259;-86
2024/04/02 07:27:40;;;;;;;8.85;3.20;;;;;;;12.68;60.24;100496.13;4919026;28;97251;-86
2024/04/02 07:30:07;;;;;;;12.45;2.95;;;;;;;12.71;60.15;100495.25;4945692;28;97291;-86
2024/04/02 07:32:33;;;;;;;7.05;2.88;;;;;;;12.74;60.38;100495.25;4943473;28;98318;-86
2024/04/02 07:34:58;;;;;;;7.68;2.60;;;;;;;12.78;60.27;100502.22;4928327;28;100540;-86
2024/04/02 07:37:26;;;;;;;13.05;3.33;;;;;;;12.82;60.49;100508.34;4944054;28;97264;-86
2024/04/02 07:39:51;;;;;;;10.30;3.17;;;;;;;12.89;60.49;100503.06;4936059;28;97289;-87
2024/04/02 07:42:17;;;;;;;12.82;3.38;;;;;;;12.92;60.29;100502.19;4940962;28;100719;-87
2024/04/02 07:44:42;;;;;;;9.15;3.30;;;;;;;12.96;60.19;100511.78;4942340;28;100195;-87
2024/04/02 07:47:08;;;;;;;10.57;3.30;;;;;;;13.02;60.33;100516.13;4943636;28;97265;-87
2024/04/02 07:49:33;;;;;;;13.25;3.30;;;;;;;13.06;60.24;100518.72;4928168;28;96992;-87
2024/04/02 07:51:59;;;;;;;11.80;3.10;;;;;;;13.10;60.14;100523.09;4944692;28;100811;-87
2024/04/02 07:54:24;;;;;;;8.13;3.20;;;;;;;13.15;60.24;100517.81;4923939;28;100364;-87
2024/04/02 07:56:49;;;;;;;12.80;3.80;;;;;;;13.21;60.25;100523.06;4929227;28;96955;-87
2024/04/02 07:59:15;;;;;;;11.40;3.42;;;;;;;13.27;59.90;100519.53;4928622;28;97423;-87
2024/04/02 08:01:40;;;;;;;15.00;3.22;;;;;;;13.30;59.87;100528.25;4944893;28;107599;-86
2024/04/02 08:04:06;;;;;;;13.57;3.38;;;;;;;13.35;59.93;100524.78;4942494;28;97561;-86
2024/04/02 08:06:31;;;;;;;12.45;3.45;;;;;;;13.39;60.12;100530.00;4929282;28;96915;-86
2024/04/02 08:08:57;;;;;;;12.80;4.20;;;;;;;13.42;60.22;100531.72;4928339;28;97729;-87
2024/04/02 08:11:23;;;;;;;11.32;3.85;;;;;;;13.45;59.98;100535.19;4941480;28;100578;-86
2024/04/02 08:13:48;;;;;;;10.60;4.25;;;;;;;13.47;59.78;100530.81;4944001;28;97961;-87
2024/04/02 08:16:17;;;;;;;14.40;4.00;;;;;;;13.49;59.65;100543.91;4939020;28;96797;-87
2024/04/02 08:18:46;;;;;;;10.88;4.50;;;;;;;13.51;59.80;100544.78;4923486;28;97163;-87
2024/04/02 08:21:12;;;;;;;12.00;4.15;;;;;;;13.55;59.54;100540.41;4928806;28;100720;-86
2024/04/02 08:23:37;;;;;;;14.77;4.50;;;;;;;13.56;59.43;100537.78;4944329;28;101174;-86
2024/04/02 08:26:03;;;;;;;13.10;4.53;;;;;;;13.58;59.27;100543.88;4940267;28;97331;-86
2024/04/02 08:28:31;;;;;;;8.63;4.28;;;;;;;13.62;59.15;100544.75;4941124;28;96923;-87
2024/04/02 08:30:56;;;;;;;13.57;4.25;;;;;;;13.64;59.41;100543.00;4944621;28;100642;-87
2024/04/02 08:33:22;;;;;;;12.52;4.15;;;;;;;13.70;59.14;100550.81;4925106;28;100227;-87
2024/04/02 08:35:51;;;;;;;13.75;4.38;;;;;;;13.75;59.43;100556.06;4918118;28;97059;-89
2024/04/02 08:38:16;;;;;;;11.25;4.47;;;;;;;13.80;59.23;100555.16;4929784;28;96987;-86
2024/04/02 08:40:50;;;;;;;13.75;5.28;;;;;;;13.86;59.22;100562.97;4960478;28;100549;-86
2024/04/02 08:43:16;;;;;;;17.20;4.78;;;;;;;13.92;59.09;100558.56;4936892;28;97466;-87
2024/04/02 08:45:45;;;;;;;10.48;4.20;;;;;;;13.97;58.91;100564.66;4945863;28;97101;-87
2024/04/02 08:48:11;;;;;;;13.70;4.22;;;;;;;14.02;58.99;100562.88;4941151;28;96997;-87
2024/04/02 08:50:40;;;;;;;10.88;4.28;;;;;;;14.07;58.71;100561.97;4927570;28;100415;-87
2024/04/02 08:53:06;;;;;;;12.10;4.20;;;;;;;14.13;58.36;100562.81;4944515;28;97892;-87
2024/04/02 08:55:32;;;;;;;14.35;4.47;;;;;;;14.18;58.39;100563.66;4935632;28;96845;-86
2024/04/02 08:57:59;;;;;;;16.85;4.07;;;;;;;14.23;58.57;100557.50;4943493;28;96817;-87
2024/04/02 09:00:26;;;;;;;11.60;3.80;;;;;;;14.30;58.41;100565.34;4943878;28;100792;-87
2024/04/02 09:02:54;;;;;;;11.27;3.55;;;;;;;14.37;58.37;100562.63;4940944;28;100714;-87
2024/04/02 09:05:20;;;;;;;12.02;4.38;;;;;;;14.45;58.23;100562.56;4922642;28;97187;-88
2024/04/02 09:07:46;;;;;;;9.07;3.67;;;;;;;14.54;58.20;100565.13;4927619;28;97056;-88
2024/04/02 09:10:11;;;;;;;8.25;3.13;;;;;;;14.67;59.02;100560.69;4927607;28;100438;-87
2024/04/02 09:12:38;;;;;;;8.90;3.25;;;;;;;14.86;58.60;100566.63;4943935;28;97443;-87
2024/04/02 09:15:05;;;;;;;14.30;4.20;;;;;;;15.02;58.27;100572.59;4942362;28;97302;-87
2024/04/02 09:17:30;;;;;;;8.13;2.85;;;;;;;15.15;57.84;100568.97;4945335;28;96815;-87
2024/04/02 09:19:56;;;;;;;10.32;3.10;;;;;;;15.25;57.44;100574.97;4925016;28;100841;-87
2024/04/02 09:22:22;;;;;;;12.77;3.30;;;;;;;15.31;56.69;100574.94;4937432;28;97662;-87
2024/04/02 09:24:49;;;;;;;10.68;3.03;;;;;;;15.31;56.20;100572.31;4942661;28;97295;-87
2024/04/02 09:27:16;;;;;;;10.27;3.17;;;;;;;15.30;55.90;100586.31;4926162;28;96876;-87
2024/04/02 09:29:41;;;;;;;8.95;2.90;;;;;;;15.28;55.48;100584.59;4927534;28;100790;-88
2024/04/02 09:32:07;;;;;;;10.10;3.00;;;;;;;15.21;55.30;100576.78;4926172;28;99681;-88
2024/04/02 09:34:34;;;;;;;9.75;2.90;;;;;;;15.15;55.80;100582.09;4927944;28;96804;-88
2024/04/02 09:37:15;;;;;;;13.90;3.38;;;;;;;15.12;56.11;100578.66;4927555;28;96960;-87
2024/04/02 09:39:42;;;;;;;12.48;3.17;;;;;;;15.20;56.08;100584.66;4943026;28;98037;-87
2024/04/02 09:42:10;;;;;;;13.43;3.80;;;;;;;15.23;55.75;100576.75;4943087;28;100155;-88
2024/04/02 09:44:36;;;;;;;10.52;3.53;;;;;;;15.22;55.63;100582.88;4943978;28;96766;-87
2024/04/02 09:47:05;;;;;;;10.20;3.35;;;;;;;15.18;55.40;100574.16;4925362;28;96871;-87
2024/04/02 09:49:31;;;;;;;10.38;3.55;;;;;;;15.14;55.46;100580.34;4940871;28;97953;-87
2024/04/02 09:51:58;;;;;;;15.00;3.97;;;;;;;15.13;55.22;100583.00;4926417;28;99617;-87
2024/04/02 09:54:24;;;;;;;8.10;3.80;;;;;;;15.08;54.93;100585.69;4927611;28;96832;-87
2024/04/02 09:56:49;;;;;;;11.05;4.07;;;;;;;15.02;55.18;100601.50;4943264;28;96958;-87
2024/04/02 09:59:15;;;;;;;9.43;4.32;;;;;;;14.96;55.75;100601.56;4944820;28;97854;-87
2024/04/02 10:01:44;;;;;;;12.38;3.83;;;;;;;14.91;55.71;100612.09;4926319;28;100155;-87
2024/04/02 10:04:23;;;;;;;12.35;4.18;;;;;;;14.81;55.74;100613.06;4958254;28;96889;-90
2024/04/02 10:07:21;;;;;;;16.55;5.07;;;;;;;14.69;56.15;100602.66;4939858;28;96962;-88
2024/04/02 10:10:05;;;;;;;11.73;4.22;;;;;;;14.65;56.47;100615.81;4919178;28;100594;-88
2024/04/02 10:12:32;;;;;;;10.93;4.07;;;;;;;14.61;56.24;100615.84;4906156;28;100351;-88
2024/04/02 10:15:04;;;;;;;10.98;4.10;;;;;;;14.54;57.01;100611.50;4927262;28;96995;-87
2024/04/02 10:17:30;;;;;;;11.32;4.03;;;;;;;14.47;56.97;100606.31;4913934;28;96899;-85
2024/04/02 10:19:55;;;;;;;11.98;4.35;;;;;;;14.43;57.24;100614.19;4926984;28;97695;-86
2024/04/02 10:22:30;;;;;;;13.55;3.97;;;;;;;14.39;57.47;100618.59;4911990;28;100468;-86
2024/04/02 10:25:25;;;;;;;11.90;3.72;;;;;;;14.30;57.46;100621.28;4928718;28;97119;-86
2024/04/02 10:27:57;;;;;;;9.95;3.97;;;;;;;14.24;57.61;100622.22;4942178;28;97182;-88
2024/04/02 10:30:27;;;;;;;12.57;3.80;;;;;;;14.16;57.70;100620.50;4917535;28;100784;-86
2024/04/02 10:32:56;;;;;;;11.55;4.18;;;;;;;14.07;57.92;100622.28;4911968;28;100986;-86
2024/04/02 10:35:25;;;;;;;11.27;4.22;;;;;;;14.03;58.34;100625.81;4928926;28;96959;-86
2024/04/02 10:37:58;;;;;;;10.65;4.38;;;;;;;13.99;58.42;100629.34;4935430;28;96961;-87
2024/04/02 10:40:24;;;;;;;9.32;4.00;;;;;;;14.00;58.82;100630.19;4910434;28;100594;-87
2024/04/02 10:42:51;;;;;;;14.45;4.90;;;;;;;13.99;58.95;100626.72;4926323;28;97796;-87
2024/04/02 10:45:18;;;;;;;9.82;4.68;;;;;;;13.99;59.18;100625.81;4927420;28;97256;-86
2024/04/02 10:47:51;;;;;;;11.25;4.85;;;;;;;14.02;59.65;100625.81;4907064;28;97400;-86
2024/04/02 10:50:19;;;;;;;13.02;4.63;;;;;;;14.06;59.43;100622.28;4923157;28;98168;-87
2024/04/02 10:52:44;;;;;;;9.30;4.03;;;;;;;14.07;59.33;100618.81;4923340;28;100724;-86
2024/04/02 10:55:11;;;;;;;10.05;4.15;;;;;;;14.08;59.44;100618.78;4910952;28;96957;-87
2024/04/02 10:57:37;;;;;;;11.82;4.68;;;;;;;14.11;59.66;100615.28;4907700;28;97758;-86
2024/04/02 11:00:05;;;;;;;8.85;3.92;;;;;;;14.16;59.87;100613.50;4919844;28;97871;-86
2024/04/02 11:02:32;;;;;;;10.50;4.75;;;;;;;14.23;60.01;100609.97;4927397;28;97778;-87
2024/04/02 11:04:58;;;;;;;10.20;4.88;;;;;;;14.30;59.81;100604.69;4906431;28;96886;-86
2024/04/02 11:07:28;;;;;;;10.10;4.13;;;;;;;14.36;59.83;100613.38;4925250;28;97141;-87
2024/04/02 11:09:54;;;;;;;12.02;4.68;;;;;;;14.41;59.36;100610.72;4908128;28;100422;-86
2024/04/02 11:12:20;;;;;;;13.02;4.93;;;;;;;14.44;59.44;100614.19;4910761;28;100768;-86
2024/04/02 11:14:50;;;;;;;9.95;4.30;;;;;;;14.47;59.16;100618.53;4919724;28;97073;-86
2024/04/02 11:17:15;;;;;;;12.82;4.50;;;;;;;14.47;59.08;100602.78;4946352;28;96884;-86